sensor_id;sensor_type;location;lat;lon;timestamp;P1;durP1;ratioP1;P2;durP2;ratioP2
69434;SDS011;56625;54.322;18.582;2022-09-09T00:02:19;5.60;;;1.50;;
69434;SDS011;56625;54.322;18.582;2022-09-09T00:04:59;4.70;;;0.90;;
69434;SDS011;56625;54.322;18.582;2022-09-09T00:07:51;6.00;;;1.10;;
69434;SDS011;56625;54.322;18.582;2022-09-09T00:10:32;6.00;;;1.00;;
69434;SDS011;56625;54.322;18.582;2022-09-09T00:13:20;5.10;;;1.10;;
69434;SDS011;56625;54.322;18.582;2022-09-09T00:18:57;3.20;;;0.90;;
69434;SDS011;56625;54.322;18.582;2022-09-09T00:22:00;5.60;;;1.20;;
69434;SDS011;56625;54.322;18.582;2022-09-09T00:24:54;5.30;;;1.00;;
69434;SDS011;56625;54.322;18.582;2022-09-09T00:27:33;7.90;;;1.30;;
69434;SDS011;56625;54.322;18.582;2022-09-09T00:30:15;5.90;;;1.10;;
69434;SDS011;56625;54.322;18.582;2022-09-09T00:33:09;7.90;;;0.90;;
69434;SDS011;56625;54.322;18.582;2022-09-09T00:35:47;4.60;;;1.20;;
69434;SDS011;56625;54.322;18.582;2022-09-09T00:38:38;5.10;;;1.10;;
69434;SDS011;56625;54.322;18.582;2022-09-09T00:41:20;3.60;;;0.90;;
69434;SDS011;56625;54.322;18.582;2022-09-09T00:47:21;4.90;;;1.10;;
69434;SDS011;56625;54.322;18.582;2022-09-09T00:53:42;4.20;;;1.10;;
69434;SDS011;56625;54.322;18.582;2022-09-09T00:56:20;6.90;;;1.00;;
69434;SDS011;56625;54.322;18.582;2022-09-09T00:59:02;3.90;;;1.00;;
69434;SDS011;56625;54.322;18.582;2022-09-09T01:01:39;3.50;;;0.90;;
69434;SDS011;56625;54.322;18.582;2022-09-09T01:04:13;4.40;;;0.90;;
69434;SDS011;56625;54.322;18.582;2022-09-09T01:06:52;3.80;;;1.00;;
69434;SDS011;56625;54.322;18.582;2022-09-09T01:09:53;6.00;;;1.10;;
69434;SDS011;56625;54.322;18.582;2022-09-09T01:12:33;6.80;;;1.10;;
69434;SDS011;56625;54.322;18.582;2022-09-09T01:15:27;5.10;;;1.20;;
69434;SDS011;56625;54.322;18.582;2022-09-09T01:18:12;6.20;;;1.20;;
69434;SDS011;56625;54.322;18.582;2022-09-09T01:21:05;7.30;;;1.40;;
69434;SDS011;56625;54.322;18.582;2022-09-09T01:26:44;4.90;;;1.20;;
69434;SDS011;56625;54.322;18.582;2022-09-09T01:29:15;5.30;;;1.30;;
69434;SDS011;56625;54.322;18.582;2022-09-09T01:31:59;4.30;;;1.00;;
69434;SDS011;56625;54.322;18.582;2022-09-09T01:34:34;5.70;;;1.20;;
69434;SDS011;56625;54.322;18.582;2022-09-09T01:37:09;5.40;;;1.00;;
69434;SDS011;56625;54.322;18.582;2022-09-09T01:39:42;3.50;;;1.00;;
69434;SDS011;56625;54.322;18.582;2022-09-09T01:42:15;5.20;;;1.20;;
69434;SDS011;56625;54.322;18.582;2022-09-09T01:44:43;5.40;;;1.00;;
69434;SDS011;56625;54.322;18.582;2022-09-09T01:47:11;5.70;;;0.90;;
69434;SDS011;56625;54.322;18.582;2022-09-09T01:49:39;5.00;;;1.20;;
69434;SDS011;56625;54.322;18.582;2022-09-09T01:52:07;6.80;;;1.10;;
69434;SDS011;56625;54.322;18.582;2022-09-09T01:54:36;6.00;;;1.00;;
69434;SDS011;56625;54.322;18.582;2022-09-09T01:57:18;6.60;;;1.00;;
69434;SDS011;56625;54.322;18.582;2022-09-09T02:00:00;6.70;;;1.10;;
69434;SDS011;56625;54.322;18.582;2022-09-09T02:05:40;4.30;;;0.80;;
69434;SDS011;56625;54.322;18.582;2022-09-09T02:08:20;6.10;;;1.30;;
69434;SDS011;56625;54.322;18.582;2022-09-09T02:13:44;4.60;;;1.00;;
69434;SDS011;56625;54.322;18.582;2022-09-09T02:16:21;5.20;;;1.10;;
69434;SDS011;56625;54.322;18.582;2022-09-09T02:19:00;6.20;;;1.10;;
69434;SDS011;56625;54.322;18.582;2022-09-09T02:21:32;5.30;;;1.20;;
69434;SDS011;56625;54.322;18.582;2022-09-09T02:24:05;5.20;;;1.20;;
69434;SDS011;56625;54.322;18.582;2022-09-09T02:26:40;5.80;;;1.10;;
69434;SDS011;56625;54.322;18.582;2022-09-09T02:29:20;5.30;;;0.90;;
69434;SDS011;56625;54.322;18.582;2022-09-09T02:31:52;5.00;;;1.00;;
69434;SDS011;56625;54.322;18.582;2022-09-09T02:34:25;3.90;;;1.00;;
69434;SDS011;56625;54.322;18.582;2022-09-09T02:36:57;3.60;;;1.00;;
69434;SDS011;56625;54.322;18.582;2022-09-09T02:39:27;4.40;;;1.20;;
69434;SDS011;56625;54.322;18.582;2022-09-09T02:41:55;3.90;;;1.10;;
69434;SDS011;56625;54.322;18.582;2022-09-09T02:44:23;4.40;;;1.00;;
69434;SDS011;56625;54.322;18.582;2022-09-09T02:50:04;5.70;;;1.00;;
69434;SDS011;56625;54.322;18.582;2022-09-09T02:52:52;5.10;;;1.20;;
69434;SDS011;56625;54.322;18.582;2022-09-09T02:55:47;5.40;;;1.10;;
69434;SDS011;56625;54.322;18.582;2022-09-09T02:58:22;5.40;;;1.30;;
69434;SDS011;56625;54.322;18.582;2022-09-09T03:00:51;8.60;;;1.30;;
69434;SDS011;56625;54.322;18.582;2022-09-09T03:03:20;5.40;;;1.30;;
69434;SDS011;56625;54.322;18.582;2022-09-09T03:05:49;6.30;;;1.30;;
69434;SDS011;56625;54.322;18.582;2022-09-09T03:08:17;6.10;;;1.40;;
69434;SDS011;56625;54.322;18.582;2022-09-09T03:10:45;4.30;;;1.00;;
69434;SDS011;56625;54.322;18.582;2022-09-09T03:13:13;5.20;;;0.90;;
69434;SDS011;56625;54.322;18.582;2022-09-09T03:15:42;7.40;;;1.00;;
69434;SDS011;56625;54.322;18.582;2022-09-09T03:18:10;7.00;;;1.20;;
69434;SDS011;56625;54.322;18.582;2022-09-09T03:20:38;5.50;;;1.10;;
69434;SDS011;56625;54.322;18.582;2022-09-09T03:23:06;3.50;;;1.00;;
69434;SDS011;56625;54.322;18.582;2022-09-09T03:25:46;6.10;;;1.80;;
69434;SDS011;56625;54.322;18.582;2022-09-09T03:28:18;5.30;;;1.30;;
69434;SDS011;56625;54.322;18.582;2022-09-09T03:30:46;6.40;;;1.70;;
69434;SDS011;56625;54.322;18.582;2022-09-09T03:33:13;5.80;;;1.30;;
69434;SDS011;56625;54.322;18.582;2022-09-09T03:35:47;6.80;;;1.60;;
69434;SDS011;56625;54.322;18.582;2022-09-09T03:38:18;5.60;;;1.60;;
69434;SDS011;56625;54.322;18.582;2022-09-09T03:40:53;5.70;;;1.80;;
69434;SDS011;56625;54.322;18.582;2022-09-09T03:43:24;6.40;;;1.90;;
69434;SDS011;56625;54.322;18.582;2022-09-09T03:45:53;7.80;;;2.10;;
69434;SDS011;56625;54.322;18.582;2022-09-09T03:48:25;9.00;;;2.30;;
69434;SDS011;56625;54.322;18.582;2022-09-09T03:50:57;9.10;;;2.00;;
69434;SDS011;56625;54.322;18.582;2022-09-09T03:53:29;6.60;;;1.50;;
69434;SDS011;56625;54.322;18.582;2022-09-09T03:55:58;7.70;;;1.80;;
69434;SDS011;56625;54.322;18.582;2022-09-09T03:58:28;6.90;;;1.60;;
69434;SDS011;56625;54.322;18.582;2022-09-09T04:00:58;6.60;;;1.80;;
69434;SDS011;56625;54.322;18.582;2022-09-09T04:03:31;7.60;;;1.90;;
69434;SDS011;56625;54.322;18.582;2022-09-09T04:06:01;7.00;;;2.10;;
69434;SDS011;56625;54.322;18.582;2022-09-09T04:08:31;5.40;;;1.90;;
69434;SDS011;56625;54.322;18.582;2022-09-09T04:11:00;7.70;;;2.10;;
69434;SDS011;56625;54.322;18.582;2022-09-09T04:13:34;6.90;;;1.80;;
69434;SDS011;56625;54.322;18.582;2022-09-09T04:16:03;7.40;;;2.30;;
69434;SDS011;56625;54.322;18.582;2022-09-09T04:18:31;6.90;;;2.10;;
69434;SDS011;56625;54.322;18.582;2022-09-09T04:21:00;6.20;;;2.00;;
69434;SDS011;56625;54.322;18.582;2022-09-09T04:23:29;14.00;;;2.40;;
69434;SDS011;56625;54.322;18.582;2022-09-09T04:25:58;7.50;;;2.20;;
69434;SDS011;56625;54.322;18.582;2022-09-09T04:28:29;6.90;;;1.90;;
69434;SDS011;56625;54.322;18.582;2022-09-09T04:31:28;6.10;;;2.00;;
69434;SDS011;56625;54.322;18.582;2022-09-09T04:33:56;7.00;;;2.20;;
69434;SDS011;56625;54.322;18.582;2022-09-09T04:36:24;6.40;;;2.00;;
69434;SDS011;56625;54.322;18.582;2022-09-09T04:38:52;7.00;;;1.70;;
69434;SDS011;56625;54.322;18.582;2022-09-09T04:41:20;6.90;;;1.90;;
69434;SDS011;56625;54.322;18.582;2022-09-09T04:43:48;5.60;;;1.90;;
69434;SDS011;56625;54.322;18.582;2022-09-09T04:46:16;7.00;;;2.10;;
69434;SDS011;56625;54.322;18.582;2022-09-09T04:48:44;6.10;;;1.90;;
69434;SDS011;56625;54.322;18.582;2022-09-09T04:51:13;6.60;;;1.80;;
69434;SDS011;56625;54.322;18.582;2022-09-09T04:53:41;8.00;;;2.30;;
69434;SDS011;56625;54.322;18.582;2022-09-09T04:56:12;6.40;;;1.90;;
69434;SDS011;56625;54.322;18.582;2022-09-09T04:58:45;10.70;;;2.20;;
69434;SDS011;56625;54.322;18.582;2022-09-09T05:01:16;6.20;;;2.00;;
69434;SDS011;56625;54.322;18.582;2022-09-09T05:03:46;5.80;;;2.10;;
69434;SDS011;56625;54.322;18.582;2022-09-09T05:06:20;6.10;;;1.80;;
69434;SDS011;56625;54.322;18.582;2022-09-09T05:08:49;7.50;;;1.80;;
69434;SDS011;56625;54.322;18.582;2022-09-09T05:11:20;7.60;;;2.00;;
69434;SDS011;56625;54.322;18.582;2022-09-09T05:14:14;7.70;;;2.70;;
69434;SDS011;56625;54.322;18.582;2022-09-09T05:16:48;5.80;;;1.90;;
69434;SDS011;56625;54.322;18.582;2022-09-09T05:19:17;7.80;;;2.00;;
69434;SDS011;56625;54.322;18.582;2022-09-09T05:21:50;6.50;;;1.80;;
69434;SDS011;56625;54.322;18.582;2022-09-09T05:24:36;5.00;;;1.70;;
69434;SDS011;56625;54.322;18.582;2022-09-09T05:27:15;7.30;;;1.80;;
69434;SDS011;56625;54.322;18.582;2022-09-09T05:30:27;6.80;;;1.70;;
69434;SDS011;56625;54.322;18.582;2022-09-09T05:33:19;7.10;;;2.00;;
69434;SDS011;56625;54.322;18.582;2022-09-09T05:36:06;6.20;;;1.80;;
69434;SDS011;56625;54.322;18.582;2022-09-09T05:38:48;7.90;;;2.10;;
69434;SDS011;56625;54.322;18.582;2022-09-09T05:41:42;7.40;;;2.10;;
69434;SDS011;56625;54.322;18.582;2022-09-09T05:44:17;6.50;;;1.90;;
69434;SDS011;56625;54.322;18.582;2022-09-09T05:47:32;6.40;;;2.00;;
69434;SDS011;56625;54.322;18.582;2022-09-09T05:50:30;6.40;;;1.80;;
69434;SDS011;56625;54.322;18.582;2022-09-09T05:53:07;6.60;;;1.70;;
69434;SDS011;56625;54.322;18.582;2022-09-09T05:55:49;8.40;;;1.60;;
69434;SDS011;56625;54.322;18.582;2022-09-09T05:58:18;5.20;;;1.50;;
69434;SDS011;56625;54.322;18.582;2022-09-09T06:00:46;4.70;;;1.40;;
69434;SDS011;56625;54.322;18.582;2022-09-09T06:03:17;7.00;;;1.50;;
69434;SDS011;56625;54.322;18.582;2022-09-09T06:05:45;5.80;;;1.70;;
69434;SDS011;56625;54.322;18.582;2022-09-09T06:08:13;7.00;;;1.70;;
69434;SDS011;56625;54.322;18.582;2022-09-09T06:10:41;4.90;;;1.40;;
69434;SDS011;56625;54.322;18.582;2022-09-09T06:13:09;4.40;;;1.40;;
69434;SDS011;56625;54.322;18.582;2022-09-09T06:15:37;5.00;;;1.30;;
69434;SDS011;56625;54.322;18.582;2022-09-09T06:18:05;5.00;;;1.40;;
69434;SDS011;56625;54.322;18.582;2022-09-09T06:20:32;4.90;;;1.40;;
69434;SDS011;56625;54.322;18.582;2022-09-09T06:23:03;5.30;;;1.60;;
69434;SDS011;56625;54.322;18.582;2022-09-09T06:25:31;6.10;;;1.40;;
69434;SDS011;56625;54.322;18.582;2022-09-09T06:27:59;5.40;;;1.30;;
69434;SDS011;56625;54.322;18.582;2022-09-09T06:30:30;5.40;;;1.60;;
69434;SDS011;56625;54.322;18.582;2022-09-09T06:33:21;4.10;;;1.20;;
69434;SDS011;56625;54.322;18.582;2022-09-09T06:35:59;5.90;;;2.10;;
69434;SDS011;56625;54.322;18.582;2022-09-09T06:38:29;4.60;;;1.40;;
69434;SDS011;56625;54.322;18.582;2022-09-09T06:40:59;7.80;;;1.70;;
69434;SDS011;56625;54.322;18.582;2022-09-09T06:43:31;5.00;;;1.70;;
69434;SDS011;56625;54.322;18.582;2022-09-09T06:46:32;4.70;;;1.40;;
69434;SDS011;56625;54.322;18.582;2022-09-09T06:49:34;5.30;;;1.30;;
69434;SDS011;56625;54.322;18.582;2022-09-09T06:52:17;4.80;;;1.60;;
69434;SDS011;56625;54.322;18.582;2022-09-09T06:54:49;8.20;;;1.60;;
69434;SDS011;56625;54.322;18.582;2022-09-09T06:57:17;6.50;;;1.50;;
69434;SDS011;56625;54.322;18.582;2022-09-09T07:00:06;3.70;;;1.20;;
69434;SDS011;56625;54.322;18.582;2022-09-09T07:02:36;4.00;;;1.10;;
69434;SDS011;56625;54.322;18.582;2022-09-09T07:05:07;4.40;;;1.10;;
69434;SDS011;56625;54.322;18.582;2022-09-09T07:07:36;5.70;;;1.40;;
69434;SDS011;56625;54.322;18.582;2022-09-09T07:10:11;5.90;;;1.40;;
69434;SDS011;56625;54.322;18.582;2022-09-09T07:12:56;4.50;;;1.40;;
69434;SDS011;56625;54.322;18.582;2022-09-09T07:15:24;4.60;;;1.30;;
69434;SDS011;56625;54.322;18.582;2022-09-09T07:17:54;5.60;;;1.40;;
69434;SDS011;56625;54.322;18.582;2022-09-09T07:20:22;4.50;;;1.20;;
69434;SDS011;56625;54.322;18.582;2022-09-09T07:22:49;6.10;;;1.40;;
69434;SDS011;56625;54.322;18.582;2022-09-09T07:25:17;5.00;;;1.40;;
69434;SDS011;56625;54.322;18.582;2022-09-09T07:27:49;7.00;;;1.30;;
69434;SDS011;56625;54.322;18.582;2022-09-09T07:30:21;5.30;;;1.10;;
69434;SDS011;56625;54.322;18.582;2022-09-09T07:32:54;7.00;;;1.50;;
69434;SDS011;56625;54.322;18.582;2022-09-09T07:35:26;7.50;;;1.50;;
69434;SDS011;56625;54.322;18.582;2022-09-09T07:37:54;4.50;;;1.50;;
69434;SDS011;56625;54.322;18.582;2022-09-09T07:40:23;4.70;;;1.50;;
69434;SDS011;56625;54.322;18.582;2022-09-09T07:42:51;5.80;;;1.50;;
69434;SDS011;56625;54.322;18.582;2022-09-09T07:45:18;5.10;;;1.50;;
69434;SDS011;56625;54.322;18.582;2022-09-09T07:47:46;5.10;;;1.50;;
69434;SDS011;56625;54.322;18.582;2022-09-09T07:50:16;6.70;;;1.60;;
69434;SDS011;56625;54.322;18.582;2022-09-09T07:52:44;5.10;;;1.40;;
69434;SDS011;56625;54.322;18.582;2022-09-09T07:55:16;4.70;;;1.30;;
69434;SDS011;56625;54.322;18.582;2022-09-09T07:57:44;4.90;;;1.20;;
69434;SDS011;56625;54.322;18.582;2022-09-09T08:00:17;5.00;;;1.30;;
69434;SDS011;56625;54.322;18.582;2022-09-09T08:02:46;5.90;;;1.40;;
69434;SDS011;56625;54.322;18.582;2022-09-09T08:05:14;4.90;;;1.40;;
69434;SDS011;56625;54.322;18.582;2022-09-09T08:07:46;5.60;;;1.50;;
69434;SDS011;56625;54.322;18.582;2022-09-09T08:10:19;5.40;;;1.20;;
69434;SDS011;56625;54.322;18.582;2022-09-09T08:12:55;4.80;;;1.40;;
69434;SDS011;56625;54.322;18.582;2022-09-09T08:15:49;7.80;;;1.50;;
69434;SDS011;56625;54.322;18.582;2022-09-09T08:18:28;6.30;;;1.30;;
69434;SDS011;56625;54.322;18.582;2022-09-09T08:22:05;4.90;;;1.40;;
69434;SDS011;56625;54.322;18.582;2022-09-09T08:26:25;8.20;;;2.40;;
69434;SDS011;56625;54.322;18.582;2022-09-09T08:29:06;6.00;;;1.80;;
69434;SDS011;56625;54.322;18.582;2022-09-09T08:31:45;5.60;;;1.60;;
69434;SDS011;56625;54.322;18.582;2022-09-09T08:34:26;6.00;;;1.50;;
69434;SDS011;56625;54.322;18.582;2022-09-09T08:37:12;4.70;;;1.50;;
69434;SDS011;56625;54.322;18.582;2022-09-09T08:39:58;5.30;;;1.60;;
69434;SDS011;56625;54.322;18.582;2022-09-09T08:43:01;5.50;;;1.20;;
69434;SDS011;56625;54.322;18.582;2022-09-09T08:46:20;6.00;;;1.60;;
69434;SDS011;56625;54.322;18.582;2022-09-09T08:55:59;4.50;;;1.70;;
69434;SDS011;56625;54.322;18.582;2022-09-09T08:58:34;5.10;;;1.70;;
69434;SDS011;56625;54.322;18.582;2022-09-09T09:04:35;4.20;;;1.20;;
69434;SDS011;56625;54.322;18.582;2022-09-09T09:07:32;5.70;;;1.50;;
69434;SDS011;56625;54.322;18.582;2022-09-09T09:10:45;6.60;;;2.20;;
69434;SDS011;56625;54.322;18.582;2022-09-09T09:13:30;7.10;;;1.70;;
69434;SDS011;56625;54.322;18.582;2022-09-09T09:19:29;6.50;;;1.70;;
69434;SDS011;56625;54.322;18.582;2022-09-09T09:22:22;5.30;;;1.90;;
69434;SDS011;56625;54.322;18.582;2022-09-09T09:36:15;5.00;;;1.80;;
69434;SDS011;56625;54.322;18.582;2022-09-09T09:39:32;5.60;;;1.70;;
69434;SDS011;56625;54.322;18.582;2022-09-09T09:42:33;5.40;;;1.60;;
69434;SDS011;56625;54.322;18.582;2022-09-09T09:45:34;5.30;;;2.00;;
69434;SDS011;56625;54.322;18.582;2022-09-09T09:48:43;5.00;;;1.80;;
69434;SDS011;56625;54.322;18.582;2022-09-09T09:51:36;5.40;;;1.70;;
69434;SDS011;56625;54.322;18.582;2022-09-09T09:56:49;5.80;;;2.10;;
69434;SDS011;56625;54.322;18.582;2022-09-09T09:59:36;5.20;;;1.70;;
69434;SDS011;56625;54.322;18.582;2022-09-09T10:02:23;4.60;;;1.60;;
69434;SDS011;56625;54.322;18.582;2022-09-09T10:05:16;6.10;;;2.30;;
69434;SDS011;56625;54.322;18.582;2022-09-09T10:08:13;6.10;;;2.40;;
69434;SDS011;56625;54.322;18.582;2022-09-09T10:34:57;9.50;;;3.20;;
69434;SDS011;56625;54.322;18.582;2022-09-09T10:40:29;7.40;;;2.40;;
69434;SDS011;56625;54.322;18.582;2022-09-09T10:52:37;7.20;;;2.90;;
69434;SDS011;56625;54.322;18.582;2022-09-09T10:55:18;6.60;;;2.70;;
69434;SDS011;56625;54.322;18.582;2022-09-09T10:57:53;8.70;;;3.30;;
69434;SDS011;56625;54.322;18.582;2022-09-09T11:00:50;6.90;;;3.00;;
69434;SDS011;56625;54.322;18.582;2022-09-09T11:03:28;7.40;;;3.10;;
69434;SDS011;56625;54.322;18.582;2022-09-09T11:06:13;6.90;;;3.30;;
69434;SDS011;56625;54.322;18.582;2022-09-09T11:09:04;7.50;;;3.30;;
69434;SDS011;56625;54.322;18.582;2022-09-09T11:11:41;7.70;;;2.70;;
69434;SDS011;56625;54.322;18.582;2022-09-09T11:14:27;7.60;;;3.10;;
69434;SDS011;56625;54.322;18.582;2022-09-09T11:17:09;6.70;;;2.70;;
69434;SDS011;56625;54.322;18.582;2022-09-09T11:19:41;7.00;;;2.90;;
69434;SDS011;56625;54.322;18.582;2022-09-09T11:25:16;6.80;;;2.80;;
69434;SDS011;56625;54.322;18.582;2022-09-09T11:31:33;6.90;;;3.10;;
69434;SDS011;56625;54.322;18.582;2022-09-09T11:34:42;6.30;;;2.60;;
69434;SDS011;56625;54.322;18.582;2022-09-09T11:40:25;6.20;;;2.60;;
69434;SDS011;56625;54.322;18.582;2022-09-09T11:43:21;6.80;;;3.10;;
69434;SDS011;56625;54.322;18.582;2022-09-09T11:45:55;9.20;;;3.10;;
69434;SDS011;56625;54.322;18.582;2022-09-09T11:48:34;8.50;;;3.20;;
69434;SDS011;56625;54.322;18.582;2022-09-09T11:51:08;7.20;;;3.10;;
69434;SDS011;56625;54.322;18.582;2022-09-09T11:56:42;6.90;;;2.80;;
69434;SDS011;56625;54.322;18.582;2022-09-09T11:59:27;8.20;;;3.30;;
69434;SDS011;56625;54.322;18.582;2022-09-09T12:02:14;7.80;;;3.10;;
69434;SDS011;56625;54.322;18.582;2022-09-09T12:05:03;8.10;;;3.00;;
69434;SDS011;56625;54.322;18.582;2022-09-09T12:07:39;6.90;;;2.90;;
69434;SDS011;56625;54.322;18.582;2022-09-09T12:10:30;6.20;;;2.90;;
69434;SDS011;56625;54.322;18.582;2022-09-09T12:13:21;7.60;;;3.50;;
69434;SDS011;56625;54.322;18.582;2022-09-09T12:15:57;7.50;;;3.70;;
69434;SDS011;56625;54.322;18.582;2022-09-09T12:18:35;8.30;;;3.10;;
69434;SDS011;56625;54.322;18.582;2022-09-09T12:24:21;7.40;;;3.20;;
69434;SDS011;56625;54.322;18.582;2022-09-09T12:27:23;8.10;;;3.10;;
69434;SDS011;56625;54.322;18.582;2022-09-09T12:30:14;12.10;;;3.80;;
69434;SDS011;56625;54.322;18.582;2022-09-09T12:32:45;8.30;;;3.50;;
69434;SDS011;56625;54.322;18.582;2022-09-09T12:35:20;7.20;;;3.10;;
69434;SDS011;56625;54.322;18.582;2022-09-09T12:38:02;8.10;;;3.10;;
69434;SDS011;56625;54.322;18.582;2022-09-09T12:40:37;8.10;;;3.30;;
69434;SDS011;56625;54.322;18.582;2022-09-09T12:43:21;7.70;;;3.60;;
69434;SDS011;56625;54.322;18.582;2022-09-09T12:45:54;7.30;;;3.50;;
69434;SDS011;56625;54.322;18.582;2022-09-09T12:48:38;8.10;;;3.10;;
69434;SDS011;56625;54.322;18.582;2022-09-09T12:51:19;7.00;;;3.20;;
69434;SDS011;56625;54.322;18.582;2022-09-09T12:53:58;8.50;;;3.40;;
69434;SDS011;56625;54.322;18.582;2022-09-09T12:56:31;7.30;;;3.40;;
69434;SDS011;56625;54.322;18.582;2022-09-09T12:59:00;8.20;;;3.80;;
69434;SDS011;56625;54.322;18.582;2022-09-09T13:01:31;6.90;;;3.10;;
69434;SDS011;56625;54.322;18.582;2022-09-09T13:04:19;7.60;;;3.20;;
69434;SDS011;56625;54.322;18.582;2022-09-09T13:06:53;7.40;;;3.40;;
69434;SDS011;56625;54.322;18.582;2022-09-09T13:09:35;8.20;;;3.60;;
69434;SDS011;56625;54.322;18.582;2022-09-09T13:12:06;8.40;;;4.00;;
69434;SDS011;56625;54.322;18.582;2022-09-09T13:14:56;7.10;;;3.50;;
69434;SDS011;56625;54.322;18.582;2022-09-09T13:18:05;7.00;;;2.80;;
69434;SDS011;56625;54.322;18.582;2022-09-09T13:20:51;7.90;;;3.40;;
69434;SDS011;56625;54.322;18.582;2022-09-09T13:23:34;7.90;;;3.40;;
69434;SDS011;56625;54.322;18.582;2022-09-09T13:26:27;7.20;;;4.00;;
69434;SDS011;56625;54.322;18.582;2022-09-09T13:29:17;7.20;;;3.20;;
69434;SDS011;56625;54.322;18.582;2022-09-09T13:32:37;8.80;;;3.70;;
69434;SDS011;56625;54.322;18.582;2022-09-09T13:40:25;10.30;;;5.10;;
69434;SDS011;56625;54.322;18.582;2022-09-09T13:43:19;11.30;;;5.10;;
69434;SDS011;56625;54.322;18.582;2022-09-09T13:46:31;8.10;;;4.30;;
69434;SDS011;56625;54.322;18.582;2022-09-09T13:51:48;9.20;;;4.40;;
69434;SDS011;56625;54.322;18.582;2022-09-09T13:55:12;8.60;;;4.30;;
69434;SDS011;56625;54.322;18.582;2022-09-09T13:58:38;10.30;;;4.90;;
69434;SDS011;56625;54.322;18.582;2022-09-09T14:01:42;9.30;;;4.60;;
69434;SDS011;56625;54.322;18.582;2022-09-09T14:04:15;8.20;;;4.10;;
69434;SDS011;56625;54.322;18.582;2022-09-09T14:06:50;9.90;;;4.40;;
69434;SDS011;56625;54.322;18.582;2022-09-09T14:09:32;11.30;;;4.80;;
69434;SDS011;56625;54.322;18.582;2022-09-09T14:12:22;10.60;;;4.30;;
69434;SDS011;56625;54.322;18.582;2022-09-09T14:15:05;10.90;;;4.60;;
69434;SDS011;56625;54.322;18.582;2022-09-09T14:18:26;11.10;;;5.30;;
69434;SDS011;56625;54.322;18.582;2022-09-09T14:21:11;10.40;;;4.70;;
69434;SDS011;56625;54.322;18.582;2022-09-09T14:23:43;9.30;;;4.30;;
69434;SDS011;56625;54.322;18.582;2022-09-09T14:26:17;11.10;;;4.90;;
69434;SDS011;56625;54.322;18.582;2022-09-09T14:28:47;11.20;;;4.80;;
69434;SDS011;56625;54.322;18.582;2022-09-09T14:31:36;13.10;;;5.30;;
69434;SDS011;56625;54.322;18.582;2022-09-09T14:34:14;10.30;;;4.90;;
69434;SDS011;56625;54.322;18.582;2022-09-09T14:36:59;10.90;;;5.00;;
69434;SDS011;56625;54.322;18.582;2022-09-09T14:39:33;11.00;;;5.00;;
69434;SDS011;56625;54.322;18.582;2022-09-09T14:42:03;11.60;;;5.10;;
69434;SDS011;56625;54.322;18.582;2022-09-09T14:44:37;12.60;;;5.60;;
69434;SDS011;56625;54.322;18.582;2022-09-09T14:47:18;12.40;;;5.80;;
69434;SDS011;56625;54.322;18.582;2022-09-09T14:49:52;11.50;;;6.50;;
69434;SDS011;56625;54.322;18.582;2022-09-09T14:52:33;10.50;;;5.80;;
69434;SDS011;56625;54.322;18.582;2022-09-09T14:55:08;13.80;;;5.60;;
69434;SDS011;56625;54.322;18.582;2022-09-09T14:57:37;12.60;;;6.00;;
69434;SDS011;56625;54.322;18.582;2022-09-09T15:00:08;11.00;;;5.30;;
69434;SDS011;56625;54.322;18.582;2022-09-09T15:02:56;10.10;;;5.60;;
69434;SDS011;56625;54.322;18.582;2022-09-09T15:05:46;11.50;;;5.60;;
69434;SDS011;56625;54.322;18.582;2022-09-09T15:08:24;10.40;;;5.70;;
69434;SDS011;56625;54.322;18.582;2022-09-09T15:11:12;11.00;;;6.20;;
69434;SDS011;56625;54.322;18.582;2022-09-09T15:13:42;10.70;;;5.40;;
69434;SDS011;56625;54.322;18.582;2022-09-09T15:16:30;10.70;;;5.70;;
69434;SDS011;56625;54.322;18.582;2022-09-09T15:19:08;10.20;;;5.00;;
69434;SDS011;56625;54.322;18.582;2022-09-09T15:21:37;11.40;;;5.70;;
69434;SDS011;56625;54.322;18.582;2022-09-09T15:24:06;11.90;;;5.60;;
69434;SDS011;56625;54.322;18.582;2022-09-09T15:27:04;11.30;;;5.90;;
69434;SDS011;56625;54.322;18.582;2022-09-09T15:30:06;13.20;;;6.20;;
69434;SDS011;56625;54.322;18.582;2022-09-09T15:32:50;11.80;;;6.50;;
69434;SDS011;56625;54.322;18.582;2022-09-09T15:35:25;11.20;;;5.10;;
69434;SDS011;56625;54.322;18.582;2022-09-09T15:38:03;12.30;;;6.30;;
69434;SDS011;56625;54.322;18.582;2022-09-09T15:40:32;12.40;;;5.70;;
69434;SDS011;56625;54.322;18.582;2022-09-09T15:43:00;13.50;;;6.30;;
69434;SDS011;56625;54.322;18.582;2022-09-09T15:45:29;13.20;;;6.40;;
69434;SDS011;56625;54.322;18.582;2022-09-09T15:48:22;13.60;;;6.70;;
69434;SDS011;56625;54.322;18.582;2022-09-09T15:51:08;14.00;;;7.00;;
69434;SDS011;56625;54.322;18.582;2022-09-09T15:54:11;13.40;;;6.50;;
69434;SDS011;56625;54.322;18.582;2022-09-09T15:57:14;14.90;;;6.30;;
69434;SDS011;56625;54.322;18.582;2022-09-09T16:00:06;14.80;;;6.70;;
69434;SDS011;56625;54.322;18.582;2022-09-09T16:03:05;11.10;;;6.50;;
69434;SDS011;56625;54.322;18.582;2022-09-09T16:05:36;12.20;;;6.40;;
69434;SDS011;56625;54.322;18.582;2022-09-09T16:08:08;12.90;;;6.10;;
69434;SDS011;56625;54.322;18.582;2022-09-09T16:10:40;14.40;;;7.00;;
69434;SDS011;56625;54.322;18.582;2022-09-09T16:13:24;12.80;;;6.30;;
69434;SDS011;56625;54.322;18.582;2022-09-09T16:16:02;13.90;;;6.60;;
69434;SDS011;56625;54.322;18.582;2022-09-09T16:18:50;11.30;;;6.70;;
69434;SDS011;56625;54.322;18.582;2022-09-09T16:21:23;16.20;;;7.90;;
69434;SDS011;56625;54.322;18.582;2022-09-09T16:24:34;15.10;;;7.20;;
69434;SDS011;56625;54.322;18.582;2022-09-09T16:27:27;12.80;;;5.90;;
69434;SDS011;56625;54.322;18.582;2022-09-09T16:30:42;11.80;;;6.80;;
69434;SDS011;56625;54.322;18.582;2022-09-09T16:34:39;14.90;;;6.70;;
69434;SDS011;56625;54.322;18.582;2022-09-09T16:37:19;13.30;;;6.60;;
69434;SDS011;56625;54.322;18.582;2022-09-09T16:39:59;13.90;;;6.70;;
69434;SDS011;56625;54.322;18.582;2022-09-09T16:43:18;15.20;;;6.70;;
69434;SDS011;56625;54.322;18.582;2022-09-09T16:46:16;16.50;;;7.70;;
69434;SDS011;56625;54.322;18.582;2022-09-09T16:49:13;14.10;;;7.00;;
69434;SDS011;56625;54.322;18.582;2022-09-09T16:51:53;13.60;;;6.60;;
69434;SDS011;56625;54.322;18.582;2022-09-09T16:54:37;17.70;;;8.50;;
69434;SDS011;56625;54.322;18.582;2022-09-09T17:01:22;15.10;;;8.10;;
69434;SDS011;56625;54.322;18.582;2022-09-09T17:05:08;15.50;;;7.70;;
69434;SDS011;56625;54.322;18.582;2022-09-09T17:07:58;14.50;;;6.90;;
69434;SDS011;56625;54.322;18.582;2022-09-09T17:10:29;17.40;;;7.80;;
69434;SDS011;56625;54.322;18.582;2022-09-09T17:12:58;14.70;;;7.30;;
69434;SDS011;56625;54.322;18.582;2022-09-09T17:15:28;14.90;;;7.60;;
69434;SDS011;56625;54.322;18.582;2022-09-09T17:18:05;15.50;;;8.30;;
69434;SDS011;56625;54.322;18.582;2022-09-09T17:20:36;16.60;;;8.50;;
69434;SDS011;56625;54.322;18.582;2022-09-09T17:23:14;16.40;;;8.20;;
69434;SDS011;56625;54.322;18.582;2022-09-09T17:26:17;15.70;;;8.30;;
69434;SDS011;56625;54.322;18.582;2022-09-09T17:29:02;18.80;;;8.70;;
69434;SDS011;56625;54.322;18.582;2022-09-09T17:31:43;14.70;;;8.30;;
69434;SDS011;56625;54.322;18.582;2022-09-09T17:34:22;15.20;;;8.50;;
69434;SDS011;56625;54.322;18.582;2022-09-09T17:37:02;14.30;;;7.40;;
69434;SDS011;56625;54.322;18.582;2022-09-09T17:39:41;15.10;;;8.10;;
69434;SDS011;56625;54.322;18.582;2022-09-09T17:42:39;15.50;;;8.20;;
69434;SDS011;56625;54.322;18.582;2022-09-09T17:45:18;14.90;;;7.80;;